.
WxDataArchive / Data Records for 2013-12-22
2013-12-21 December 2013 2013-12-23

Data Records for Sunday, 22 December 2013

Time	Temp	Chill	HIndex	Humid	Dewpt	 Wind 	HiWind	WindDir	Rain 	Barom 
-----	----	-----	------	-----	-----	------	------	-------	-----	----- 
00:00	34.0	34.0	34.0	95	32.7	1	4	292	0.00	29.609 
00:05	34.0	30.4	34.0	95	32.7	4	10	90	0.00	29.609 
00:10	34.1	34.1	34.1	95	32.8	3	10	270	0.00	29.609 
00:15	34.1	34.1	34.1	95	32.8	2	8	112	0.01	29.608 
00:20	34.1	34.1	34.1	95	32.8	2	7	90	0.01	29.608 
00:25	34.0	34.0	34.0	95	32.7	2	5	112	0.00	29.608 
00:30	34.0	30.4	34.0	95	32.7	4	10	90	0.00	29.575 
00:35	33.8	29.2	33.8	95	32.5	5	12	112	0.00	29.575 
00:40	33.8	29.2	33.8	95	32.5	5	14	112	0.01	29.575 
00:45	33.8	33.8	33.8	95	32.5	3	12	90	0.00	29.565 
00:50	33.7	30.0	33.7	95	32.4	4	12	112	0.00	29.565 
00:55	33.5	33.5	33.5	95	32.2	3	10	112	0.00	29.565 
01:00	33.4	33.4	33.4	95	32.1	2	9	90	0.01	29.501 
01:05	33.5	33.5	33.5	95	32.2	1	4	112	0.00	29.501 
01:10	33.5	33.5	33.5	95	32.2	2	5	112	0.00	29.501 
01:15	33.5	33.5	33.5	95	32.2	1	4	90	0.00	29.548 
01:20	33.5	29.8	33.5	95	32.2	4	12	112	0.00	29.548 
01:25	33.5	28.8	33.5	95	32.2	5	20	112	0.00	29.548 
01:30	33.4	28.7	33.4	95	32.1	5	12	90	0.00	29.497 
01:35	33.4	33.4	33.4	95	32.1	2	9	112	0.00	29.497 
01:40	33.4	33.4	33.4	95	32.1	3	7	112	0.00	29.497 
01:45	33.5	29.8	33.5	95	32.2	4	7	112	0.00	29.559 
01:50	33.5	33.5	33.5	95	32.2	3	7	112	0.00	29.559 
01:55	33.5	27.3	33.5	95	32.2	7	14	112	0.00	29.559 
02:00	33.5	33.5	33.5	95	32.2	2	6	90	0.00	29.496 
02:05	33.5	33.5	33.5	95	32.2	2	7	112	0.00	29.496 
02:10	33.7	30.0	33.7	95	32.4	4	9	112	0.00	29.496 
02:15	33.7	30.0	33.7	95	32.4	4	9	112	0.00	29.526 
02:20	33.7	33.7	33.7	95	32.4	3	12	112	0.00	29.526 
02:25	33.7	30.0	33.7	95	32.4	4	8	112	0.00	29.526 
02:30	33.8	29.2	33.8	95	32.5	5	9	112	0.00	29.482 
02:35	33.8	33.8	33.8	95	32.5	2	9	90	0.00	29.482 
02:40	33.8	30.2	33.8	95	32.5	4	10	112	0.00	29.482 
02:45	33.8	33.8	33.8	95	32.5	1	5	90	0.00	29.560 
02:50	34.0	34.0	34.0	95	32.7	1	5	90	0.00	29.560 
02:55	34.0	34.0	34.0	95	32.7	1	4	112	0.02	29.560 
03:00	34.0	34.0	34.0	95	32.7	1	5	112	0.00	29.511 
03:05	34.0	34.0	34.0	95	32.7	2	7	112	0.00	29.511 
03:10	34.1	34.1	34.1	96	33.1	3	6	90	0.01	29.511 
03:15	34.1	34.1	34.1	96	33.1	3	6	90	0.00	29.525 
03:20	34.3	34.3	34.3	96	33.3	2	6	112	0.01	29.525 
03:25	34.3	34.3	34.3	96	33.3	1	5	112	0.00	29.525 
03:30	34.3	34.3	34.3	96	33.3	2	5	90	0.01	29.527 
03:35	34.3	34.3	34.3	96	33.3	2	4	112	0.00	29.527 
03:40	34.4	34.4	34.4	96	33.4	2	5	90	0.01	29.527 
03:45	34.4	34.4	34.4	96	33.4	3	10	90	0.00	29.519 
03:50	34.6	34.6	34.6	96	33.6	1	4	270	0.00	29.519 
03:55	34.6	34.6	34.6	96	33.6	2	5	90	0.00	29.519 
04:00	34.6	34.6	34.6	96	33.6	2	5	112	0.00	29.513 
04:05	34.6	34.6	34.6	96	33.6	1	6	112	0.01	29.513 
04:10	34.7	34.7	34.7	96	33.7	1	4	112	0.00	29.513 
04:15	34.7	34.7	34.7	96	33.7	0	2	112	0.00	29.516 
04:20	34.7	34.7	34.7	96	33.7	1	3	112	0.01	29.516 
04:25	34.6	34.6	34.6	96	33.6	1	3	112	0.00	29.516 
04:30	34.6	34.6	34.6	96	33.6	0	3	112	0.00	29.528 
04:35	34.6	34.6	34.6	96	33.6	2	4	112	0.01	29.528 
04:40	34.6	34.6	34.6	96	33.6	1	5	112	0.00	29.528 
04:45	34.6	34.6	34.6	96	33.6	0	3	112	0.00	29.531 
04:50	34.6	34.6	34.6	96	33.6	2	4	90	0.00	29.531 
04:55	34.6	34.6	34.6	96	33.6	1	4	112	0.00	29.531 
05:00	34.6	34.6	34.6	96	33.6	0	2	112	0.00	29.530 
05:05	34.6	34.6	34.6	96	33.6	1	3	112	0.00	29.530 
05:10	34.6	34.6	34.6	96	33.6	1	3	112	0.00	29.530 
05:15	34.6	34.6	34.6	96	33.6	1	4	112	0.00	29.527 
05:20	34.6	34.6	34.6	96	33.6	1	3	112	0.00	29.527 
05:25	34.6	34.6	34.6	96	33.6	1	3	112	0.00	29.527 
05:30	34.6	34.6	34.6	96	33.6	2	3	112	0.00	29.536 
05:35	34.6	34.6	34.6	96	33.6	2	4	112	0.01	29.536 
05:40	34.6	34.6	34.6	96	33.6	2	4	112	0.00	29.536 
05:45	34.7	34.7	34.7	96	33.7	1	5	112	0.00	29.536 
05:50	34.6	34.6	34.6	96	33.6	1	3	112	0.00	29.536 
05:55	34.6	34.6	34.6	96	33.6	1	2	112	0.00	29.536 
06:00	34.4	34.4	34.4	96	33.4	0	2	112	0.00	29.542 
06:05	34.4	34.4	34.4	96	33.4	0	1	112	0.00	29.542 
06:10	34.4	34.4	34.4	96	33.4	0	0	---	0.00	29.542 
06:15	34.4	34.4	34.4	96	33.4	0	0	---	0.00	29.546 
06:20	34.4	34.4	34.4	96	33.4	0	0	---	0.00	29.546 
06:25	34.4	34.4	34.4	96	33.4	0	0	---	0.00	29.546 
06:30	34.6	34.6	34.6	96	33.6	0	1	112	0.00	29.558 
06:35	34.6	34.6	34.6	96	33.6	0	0	---	0.00	29.558 
06:40	34.7	34.7	34.7	96	33.7	0	0	---	0.00	29.558 
06:45	34.7	34.7	34.7	96	33.7	0	0	---	0.00	29.560 
06:50	34.9	34.9	34.9	96	33.9	0	0	---	0.00	29.560 
06:55	34.9	34.9	34.9	96	33.9	0	0	---	0.00	29.560 
07:00	35.0	35.0	35.0	96	34.0	0	0	---	0.00	29.578 
07:05	35.5	35.5	35.5	96	34.5	0	1	112	0.00	29.578 
07:10	36.0	36.0	36.0	96	35.0	0	3	225	0.00	29.578 
07:15	36.8	36.8	36.8	96	35.8	1	5	248	0.00	29.577 
07:20	37.3	37.3	37.3	96	36.3	1	5	248	0.00	29.577 
07:25	38.0	38.0	38.0	97	37.2	1	5	248	0.00	29.577 
07:30	38.6	38.6	38.6	97	37.8	2	6	248	0.00	29.590 
07:35	38.8	38.8	38.8	97	38.0	2	4	248	0.00	29.590 
07:40	38.8	38.8	38.8	96	37.8	2	6	248	0.00	29.590 
07:45	38.5	38.5	38.5	96	37.5	2	6	248	0.00	29.605 
07:50	38.3	38.3	38.3	96	37.3	2	6	270	0.00	29.605 
07:55	38.0	38.0	38.0	96	37.0	3	9	248	0.00	29.605 
08:00	37.8	37.8	37.8	96	36.8	3	10	248	0.00	29.621 
08:05	37.6	37.6	37.6	96	36.6	1	5	248	0.00	29.621 
08:10	37.5	37.5	37.5	96	36.5	1	3	248	0.00	29.621 
08:15	37.3	37.3	37.3	96	36.3	2	6	248	0.00	29.633 
08:20	37.0	37.0	37.0	96	36.0	2	6	248	0.00	29.633 
08:25	36.9	36.9	36.9	96	35.9	1	6	248	0.00	29.633 
08:30	36.8	36.8	36.8	96	35.8	1	5	248	0.00	29.637 
08:35	36.6	36.6	36.6	96	35.6	1	4	248	0.00	29.637 
08:40	36.5	36.5	36.5	96	35.5	2	4	248	0.00	29.637 
08:45	36.5	36.5	36.5	96	35.5	1	5	248	0.00	29.639 
08:50	36.5	36.5	36.5	96	35.5	1	4	248	0.00	29.639 
08:55	36.5	36.5	36.5	96	35.5	1	5	248	0.00	29.639 
09:00	36.5	36.5	36.5	96	35.5	1	4	248	0.00	29.656 
09:05	36.5	36.5	36.5	96	35.5	2	5	248	0.00	29.656 
09:10	36.5	36.5	36.5	96	35.5	2	5	270	0.00	29.656 
09:15	36.6	36.6	36.6	96	35.6	2	11	248	0.00	29.675 
09:20	36.6	36.6	36.6	96	35.6	2	5	248	0.00	29.675 
09:25	36.6	36.6	36.6	96	35.6	1	7	248	0.00	29.675 
09:30	36.6	36.6	36.6	96	35.6	3	7	248	0.00	29.690 
09:35	36.5	36.5	36.5	96	35.5	3	10	248	0.00	29.690 
09:40	36.5	36.5	36.5	96	35.5	2	7	248	0.00	29.690 
09:45	36.6	36.6	36.6	96	35.6	2	5	248	0.00	29.701 
09:50	36.6	36.6	36.6	96	35.6	3	13	248	0.00	29.701 
09:55	36.8	36.8	36.8	96	35.8	1	6	248	0.00	29.701 
10:00	36.9	36.9	36.9	96	35.9	2	7	248	0.00	29.706 
10:05	37.0	37.0	37.0	96	36.0	2	7	248	0.00	29.706 
10:10	37.0	37.0	37.0	96	36.0	2	6	248	0.00	29.706 
10:15	37.2	37.2	37.2	96	36.2	2	9	248	0.00	29.717 
10:20	37.3	37.3	37.3	96	36.3	2	5	248	0.00	29.717 
10:25	37.5	37.5	37.5	96	36.5	2	5	248	0.00	29.717 
10:30	37.6	37.6	37.6	96	36.6	2	5	248	0.00	29.716 
10:35	37.8	37.8	37.8	96	36.8	3	6	248	0.00	29.716 
10:40	37.9	37.9	37.9	96	36.9	1	5	248	0.00	29.716 
10:45	38.0	38.0	38.0	96	37.0	3	9	248	0.00	29.730 
10:50	38.2	38.2	38.2	96	37.2	2	7	248	0.00	29.730 
10:55	38.2	38.2	38.2	96	37.2	3	12	248	0.00	29.730 
11:00	38.3	38.3	38.3	96	37.3	3	9	248	0.00	29.742 
11:05	38.3	38.3	38.3	96	37.3	3	9	248	0.00	29.742 
11:10	38.5	38.5	38.5	96	37.5	2	6	248	0.00	29.742 
11:15	38.3	35.4	38.3	96	37.3	4	12	248	0.00	29.746 
11:20	38.5	38.5	38.5	96	37.5	2	7	248	0.00	29.746 
11:25	38.5	38.5	38.5	95	37.2	2	10	248	0.00	29.746 
11:30	38.3	38.3	38.3	95	37.0	3	7	248	0.00	29.758 
11:35	38.3	35.4	38.3	95	37.0	4	10	270	0.00	29.758 
11:40	38.2	35.2	38.2	94	36.6	4	11	248	0.00	29.758 
11:45	38.0	35.0	38.0	94	36.4	4	10	248	0.00	29.762 
11:50	38.0	38.0	38.0	93	36.2	3	9	248	0.00	29.762 
11:55	38.2	38.2	38.2	93	36.4	2	7	248	0.00	29.762 
12:00	38.2	38.2	38.2	92	36.1	3	7	248	0.00	29.762 
12:05	38.3	38.3	38.3	92	36.2	2	9	248	0.00	29.762 
12:10	38.3	38.3	38.3	91	35.9	3	11	248	0.00	29.762 
12:15	38.3	38.3	38.3	91	35.9	2	6	248	0.00	29.765 
12:20	38.3	38.3	38.3	90	35.6	3	8	248	0.00	29.765 
12:25	38.3	38.3	38.3	90	35.6	3	10	248	0.00	29.765 
12:30	38.3	38.3	38.3	89	35.3	2	5	248	0.00	29.781 
12:35	38.2	35.2	38.2	89	35.2	4	10	248	0.00	29.781 
12:40	38.3	38.3	38.3	88	35.1	2	9	248	0.00	29.781 
12:45	38.2	38.2	38.2	88	35.0	3	7	248	0.00	29.787 
12:50	38.2	35.2	38.2	88	35.0	4	12	248	0.00	29.787 
12:55	38.0	35.0	38.0	87	34.5	4	10	270	0.00	29.787 
13:00	38.0	38.0	38.0	86	34.2	3	6	248	0.00	29.794 
13:05	38.0	38.0	38.0	86	34.2	2	9	248	0.00	29.794 
13:10	38.2	38.2	38.2	86	34.4	1	6	270	0.00	29.794 
13:15	38.2	38.2	38.2	86	34.4	1	4	270	0.00	29.793 
13:20	38.2	38.2	38.2	86	34.4	2	6	248	0.00	29.793 
13:25	38.2	38.2	38.2	86	34.4	2	6	248	0.00	29.793 
13:30	38.2	38.2	38.2	85	34.1	1	4	248	0.00	29.796 
13:35	38.2	38.2	38.2	85	34.1	3	11	248	0.00	29.796 
13:40	38.2	38.2	38.2	85	34.1	3	7	248	0.00	29.796 
13:45	38.2	38.2	38.2	85	34.1	2	6	248	0.00	29.799 
13:50	38.2	38.2	38.2	85	34.1	3	7	248	0.00	29.799 
13:55	38.0	38.0	38.0	86	34.2	2	7	270	0.00	29.799 
14:00	38.0	38.0	38.0	86	34.2	2	5	248	0.00	29.808 
14:05	38.0	38.0	38.0	86	34.2	1	4	248	0.00	29.808 
14:10	38.0	38.0	38.0	86	34.2	2	6	248	0.00	29.808 
14:15	37.9	37.9	37.9	86	34.1	3	12	248	0.00	29.815 
14:20	37.8	37.8	37.8	86	34.0	3	10	248	0.00	29.815 
14:25	37.8	34.8	37.8	86	34.0	4	11	248	0.00	29.815 
14:30	37.8	37.8	37.8	86	34.0	3	7	248	0.00	29.819 
14:35	37.6	37.6	37.6	86	33.8	3	10	248	0.00	29.819 
14:40	37.6	37.6	37.6	87	34.1	3	5	248	0.00	29.819 
14:45	37.3	37.3	37.3	87	33.8	3	11	248	0.00	29.821 
14:50	37.3	37.3	37.3	88	34.1	2	10	248	0.00	29.821 
14:55	37.2	37.2	37.2	88	34.0	3	7	248	0.00	29.821 
15:00	37.2	37.2	37.2	88	34.0	2	6	248	0.00	29.828 
15:05	37.0	37.0	37.0	88	33.8	2	5	248	0.00	29.828 
15:10	37.0	37.0	37.0	88	33.8	2	6	248	0.00	29.828 
15:15	36.9	36.9	36.9	88	33.7	2	6	248	0.00	29.834 
15:20	36.8	36.8	36.8	88	33.6	3	7	248	0.00	29.834 
15:25	36.6	36.6	36.6	89	33.7	2	6	248	0.00	29.834 
15:30	36.6	36.6	36.6	89	33.7	1	5	248	0.00	29.842 
15:35	36.6	36.6	36.6	89	33.7	1	4	248	0.00	29.842 
15:40	36.6	36.6	36.6	90	33.9	1	4	248	0.00	29.842 
15:45	36.5	36.5	36.5	90	33.9	0	3	248	0.00	29.846 
15:50	36.5	36.5	36.5	90	33.9	1	4	248	0.00	29.846 
15:55	36.3	36.3	36.3	91	33.9	1	5	248	0.00	29.846 
16:00	36.2	36.2	36.2	91	33.8	1	5	270	0.00	29.856 
16:05	36.2	36.2	36.2	91	33.8	2	5	248	0.00	29.856 
16:10	36.0	36.0	36.0	91	33.6	2	4	248	0.00	29.856 
16:15	36.0	36.0	36.0	91	33.6	2	6	248	0.00	29.871 
16:20	36.0	36.0	36.0	90	33.4	2	5	248	0.00	29.871 
16:25	36.2	36.2	36.2	90	33.6	2	6	248	0.00	29.871 
16:30	36.2	36.2	36.2	89	33.3	2	7	248	0.00	29.877 
16:35	36.2	36.2	36.2	88	33.0	2	7	248	0.00	29.877 
16:40	36.2	36.2	36.2	88	33.0	2	5	248	0.00	29.877 
16:45	36.2	36.2	36.2	88	33.0	1	4	248	0.00	29.880 
16:50	36.2	36.2	36.2	88	33.0	1	3	248	0.00	29.880 
16:55	36.2	36.2	36.2	88	33.0	1	5	248	0.00	29.880 
17:00	36.0	36.0	36.0	87	32.5	2	6	248	0.00	29.890 
17:05	36.0	36.0	36.0	87	32.5	1	4	248	0.00	29.890 
17:10	36.0	36.0	36.0	87	32.5	2	5	248	0.00	29.890 
17:15	36.0	36.0	36.0	86	32.2	2	5	248	0.00	29.897 
17:20	36.0	36.0	36.0	86	32.2	2	5	248	0.00	29.897 
17:25	36.0	36.0	36.0	86	32.2	1	3	248	0.00	29.897 
17:30	36.0	36.0	36.0	85	31.9	1	2	248	0.00	29.907 
17:35	36.0	36.0	36.0	85	31.9	2	4	248	0.00	29.907 
17:40	35.9	35.9	35.9	85	31.8	2	5	248	0.00	29.907 
17:45	36.0	36.0	36.0	84	31.6	1	4	248	0.00	29.909 
17:50	35.9	35.9	35.9	84	31.5	1	5	248	0.00	29.909 
17:55	35.9	35.9	35.9	84	31.5	2	6	270	0.00	29.909 
18:00	35.9	35.9	35.9	84	31.5	1	4	248	0.00	29.920 
18:05	35.9	35.9	35.9	84	31.5	2	6	248	0.00	29.920 
18:10	35.9	35.9	35.9	84	31.5	1	8	270	0.00	29.920 
18:15	35.9	35.9	35.9	84	31.5	2	6	248	0.00	29.921 
18:20	35.9	35.9	35.9	84	31.5	1	4	248	0.00	29.921 
18:25	35.9	35.9	35.9	84	31.5	1	3	270	0.00	29.921 
18:30	35.8	35.8	35.8	84	31.4	1	3	270	0.00	29.921 
18:35	35.8	35.8	35.8	84	31.4	1	3	270	0.00	29.921 
18:40	35.8	35.8	35.8	84	31.4	0	3	270	0.00	29.921 
18:45	35.8	35.8	35.8	84	31.4	1	6	270	0.00	29.924 
18:50	35.6	35.6	35.6	84	31.3	1	4	248	0.00	29.924 
18:55	35.6	35.6	35.6	84	31.3	1	4	248	0.00	29.924 
19:00	35.6	35.6	35.6	84	31.3	2	5	248	0.00	29.930 
19:05	35.6	35.6	35.6	84	31.3	2	9	248	0.00	29.930 
19:10	35.5	35.5	35.5	84	31.2	1	4	248	0.00	29.930 
19:15	35.5	35.5	35.5	84	31.2	2	6	248	0.00	29.933 
19:20	35.5	35.5	35.5	84	31.2	1	4	248	0.00	29.933 
19:25	35.5	35.5	35.5	84	31.2	1	5	248	0.00	29.933 
19:30	35.5	35.5	35.5	84	31.2	2	6	248	0.00	29.937 
19:35	35.5	35.5	35.5	85	31.4	1	4	270	0.00	29.937 
19:40	35.3	35.3	35.3	85	31.2	1	4	248	0.00	29.937 
19:45	35.3	35.3	35.3	85	31.2	1	4	248	0.00	29.942 
19:50	35.3	35.3	35.3	85	31.2	1	4	248	0.00	29.942 
19:55	35.3	35.3	35.3	85	31.2	1	3	248	0.00	29.942 
20:00	35.3	35.3	35.3	86	31.5	2	3	248	0.00	29.949 
20:05	35.3	35.3	35.3	86	31.5	2	7	248	0.00	29.949 
20:10	35.3	35.3	35.3	86	31.5	1	5	248	0.00	29.949 
20:15	35.3	35.3	35.3	86	31.5	2	6	248	0.00	29.954 
20:20	35.3	35.3	35.3	86	31.5	1	5	248	0.00	29.954 
20:25	35.3	35.3	35.3	86	31.5	2	6	248	0.00	29.954 
20:30	35.3	35.3	35.3	86	31.5	1	3	248	0.00	29.960 
20:35	35.2	35.2	35.2	86	31.4	1	5	248	0.00	29.960 
20:40	35.2	35.2	35.2	86	31.4	1	5	248	0.00	29.960 
20:45	35.2	35.2	35.2	87	31.7	1	4	248	0.00	29.956 
20:50	35.0	35.0	35.0	87	31.5	2	5	248	0.00	29.956 
20:55	34.7	34.7	34.7	87	31.2	2	4	270	0.00	29.956 
21:00	34.4	34.4	34.4	88	31.2	1	3	270	0.00	29.963 
21:05	34.3	34.3	34.3	88	31.1	2	4	270	0.00	29.963 
21:10	34.3	34.3	34.3	88	31.1	1	3	248	0.00	29.963 
21:15	34.1	34.1	34.1	88	30.9	1	4	248	0.00	29.967 
21:20	34.1	34.1	34.1	88	30.9	1	3	270	0.00	29.967 
21:25	34.1	34.1	34.1	88	30.9	1	3	270	0.00	29.967 
21:30	34.1	34.1	34.1	88	30.9	1	3	270	0.00	29.970 
21:35	34.0	34.0	34.0	88	30.8	1	3	248	0.00	29.970 
21:40	34.0	34.0	34.0	88	30.8	0	2	248	0.00	29.970 
21:45	34.0	34.0	34.0	88	30.8	1	3	248	0.00	29.977 
21:50	34.0	34.0	34.0	88	30.8	0	3	248	0.00	29.977 
21:55	34.0	34.0	34.0	88	30.8	0	2	248	0.00	29.977 
22:00	34.0	34.0	34.0	88	30.8	1	3	248	0.00	29.985 
22:05	34.0	34.0	34.0	88	30.8	1	3	248	0.00	29.985 
22:10	34.0	34.0	34.0	88	30.8	0	2	248	0.00	29.985 
22:15	34.0	34.0	34.0	88	30.8	1	3	248	0.00	29.978 
22:20	34.0	34.0	34.0	88	30.8	0	3	248	0.00	29.978 
22:25	33.8	33.8	33.8	89	30.9	1	2	248	0.00	29.978 
22:30	33.8	33.8	33.8	89	30.9	1	4	248	0.00	29.985 
22:35	33.8	33.8	33.8	88	30.6	1	3	248	0.00	29.985 
22:40	33.8	33.8	33.8	88	30.6	2	4	315	0.00	29.985 
22:45	33.7	33.7	33.7	88	30.5	2	4	270	0.00	29.986 
22:50	33.7	33.7	33.7	88	30.5	1	3	270	0.00	29.986 
22:55	33.7	33.7	33.7	88	30.5	0	2	270	0.00	29.986 
23:00	33.5	33.5	33.5	88	30.3	0	2	270	0.00	29.990 
23:05	33.5	33.5	33.5	88	30.3	0	2	270	0.00	29.990 
23:10	33.4	33.4	33.4	88	30.2	2	4	270	0.00	29.990 
23:15	33.2	33.2	33.2	88	30.0	1	3	270	0.00	29.994 
23:20	33.2	33.2	33.2	89	30.3	1	3	292	0.00	29.994 
23:25	33.1	33.1	33.1	89	30.2	2	4	248	0.00	29.994 
23:30	33.1	33.1	33.1	89	30.2	1	3	248	0.00	30.001 
23:35	33.1	33.1	33.1	89	30.2	1	4	248	0.00	30.001 
23:40	32.9	32.9	32.9	89	30.0	1	4	248	0.00	30.001 
23:45	32.9	32.9	32.9	89	30.0	1	5	248	0.00	30.017 
23:50	32.8	32.8	32.8	89	29.9	0	2	248	0.00	30.017 
23:55	32.8	32.8	32.8	89	29.9	0	2	248	0.00	30.017 

CoCoRaHS
IN-AL-39
A2 Web Hosting
Creative Commons License
GoDaddy
search engine by freefind advanced

loaded 2018-11-20 02:40:06 • last modified 2010-11-18 10:43:29
Privacy PolicyDisclaimer
• wx.awcolley.com is powered by PmWiki v.2002016 •
• all content (unless otherwise noted) © 2018 A W Colley